Vero Beach Municipal, FL

22:21 EDT le 20 août 2014 (GMT -0400)
Saint Lucie County International | Change Station
CLOSE
Current Station
Aéroport
Location: Ft Pierce,
Altitude: 23 ft
Stations météo à proximité

Alt. 23 ft 27.50 °N, 80.38 °W | Updated 28 minutes ago

Clear
Ciel dégagé
83 ° F
Paraît 92 ° F
N
0
Vent Variable Vent de Nord

Aujourd'hui
Haut(e) -- | Bas -- ° F
--% Risque de précip.
Hier
Haut(e) -- | Bas -- ° F
Precip. -- pouce
6:54 AM 7:54 PM
Lune descendante, 17% visible
Pression 30.09 pouce
Visibilité 10.0 Miles terrestres
Nuages Ciel dégagé
indice de chaleur 92 ° F
Point de rosée 77 ° F
Humidité 82%
Précipitations 0.00 pouce
Profondeur de la couche neigeuse Non disponible.
UV 0 sur 12
Pollen 4.90 sur 12
Qualité de l'air Non disponible.
Flu Activity Non disponible.
METAR KFPR 210153Z 00000KT 10SM CLR 28/25 A3009 RMK AO2 SLP189 T02830250

More Conditions Fewer Conditions

Pression 30.09 pouce
Visibilité 10.0 Miles terrestres
Nuages Ciel dégagé
indice de chaleur 92 ° F
Point de rosée 77 ° F
Humidité 82%
Précipitations 0.00 pouce
Profondeur de la couche neigeuse Non disponible.
UV 0 sur 12
Pollen 4.90 sur 12
Qualité de l'air Non disponible.
Flu Activity Non disponible.
METAR KFPR 210153Z 00000KT 10SM CLR 28/25 A3009 RMK AO2 SLP189 T02830250

More Conditions Fewer Conditions

Nowcast | as of 8:55 PM EDT on August 20, 2014

Through this evening...a few storms will linger from Arcadia...to Lake Kissimmee...to near Holopaw...to just east of Deland. A few others will occur near Saint Augustine. The lingering showers and storms should dissipate by midnight. Additional details...including graphics are available online at: http://www.Srh.NOAA.Gov/mlb/blog.Php

×

10-Day Weather Forecast

Almanac

Astronomie

Aug. 20, 2014 Lever Coucher
Temps réel 06:54 EDT 19:54 EDT
Crépuscule civil 06:30 EDT 20:19 EDT
Crépuscule nautique 06:01 EDT 20:47 EDT
Crépuscule astronomique 05:32 EDT 21:17 EDT
Lune 02:42 EDT (8/20) 16:29 EDT (8/20)
Durée de lumière visible 13h 48m
Longueur du jour
13h 00m
Tomorrow will be 1m 29s shorter.
Lune descendante, 17% of the Moon is Illuminated
Aujourd'hui
Lune descendante
août 25
Nouveau
Sep 2
Premier quartier
Sep 8
Pleine lune
Sep 15
Dernier quartier

Extrêmes aujourd'hui

State Highs State Lows

Community

WunderPhotos

Upload Photos

1,745,851 Photos téléchargées !

WunderBlogs® & News

By Dr. Jeff Masters
Director of Meteorology, Weather Underground
By Kari Strenfel
Meteorologist, Weather Underground
By Christopher C. Burt
Weather Historian, Weather Underground
August 20, 2014
August 20, 2014
August 20, 2014

Nearby

Épaisseur de neige

Station Depth Altitude
Pas de nouvelles chutes de neige

Activité sismique

Ville Distance Mag. Time & Date
No recent earthquake activity has been reported nearby.
Minimum magnitude displayed is 2.5.

Températures des eaux côtières

Lieu Température
Lake Worth, FL 87.1 ° F
Trident Pier, FL 84.0 ° F
Virginia Key, FL 90.0 ° F

Stations météo à proximité